Roosevelt Corner, California
Current Conditions -  °F | °C
As of 11:58 AM on Monday 24 Nov 2014 (Local Time) from KEDW Reporting Station
Broken Clouds Broken Clouds  
Wind Chill: 57°   Ceiling: 28000
Heat Index: 57°   Visibility: 91mi
Dew Point: 10°   Wind: 1mph
Humidity: 15%   Direction: 40°NE
Pressure: 30.35"   Gusts: NA
Location:  34.7192°N, 117.884°W
Report Text: KEDW 241958Z 04001KT 90SM BKN280 14/M12 A3035 RMK AO2A SLP279 CONTRAILS T01401122
Loading
Personal Weather Stations






























Interactive Weather Map New forecast layout! Learn more

10-Day Weather Forecast

Advertisements
Track Severe Weather on mobile